createdAt,value
2022-10-07T00:01:11.766Z,100635.77
2022-10-07T00:03:41.169Z,100636.88
2022-10-07T00:06:18.621Z,100635.95
2022-10-07T00:08:50.292Z,100631.76
2022-10-07T00:11:24.129Z,100625.30
2022-10-07T00:13:58.716Z,100624.83
2022-10-07T00:16:30.332Z,100624.17
2022-10-07T00:19:02.584Z,100625.27
2022-10-07T00:21:33.580Z,100624.17
2022-10-07T00:24:01.902Z,100624.98
2022-10-07T00:26:32.683Z,100628.84
2022-10-07T00:29:02.095Z,100624.70
2022-10-07T00:31:33.547Z,100625.80
2022-10-07T00:34:03.774Z,100626.84
2022-10-07T00:36:35.317Z,100623.27
2022-10-07T00:39:09.294Z,100624.58
2022-10-07T00:41:39.905Z,100623.08
2022-10-07T00:44:29.867Z,100617.32
2022-10-07T00:47:00.115Z,100616.56
2022-10-07T00:49:29.920Z,100614.25
2022-10-07T00:51:58.737Z,100614.92
2022-10-07T00:54:27.164Z,100614.30
2022-10-07T00:56:55.875Z,100611.58
2022-10-07T00:59:24.190Z,100610.05
2022-10-07T01:01:52.426Z,100607.63
2022-10-07T01:04:20.692Z,100604.98
2022-10-07T01:06:48.988Z,100605.68
2022-10-07T01:09:17.825Z,100603.95
2022-10-07T01:12:22.281Z,100600.80
2022-10-07T01:14:58.554Z,100599.30
2022-10-07T01:17:47.395Z,100599.52
2022-10-07T01:20:34.357Z,100603.41
2022-10-07T01:23:05.222Z,100601.02
2022-10-07T01:26:09.677Z,100602.11
2022-10-07T01:28:44.749Z,100598.39
2022-10-07T01:31:18.071Z,100595.52
2022-10-07T01:33:49.593Z,100596.09
2022-10-07T01:36:22.996Z,100590.30
2022-10-07T01:38:59.631Z,100592.65
2022-10-07T01:41:29.365Z,100591.85
2022-10-07T01:43:59.675Z,100587.77
2022-10-07T01:46:28.749Z,100589.51
2022-10-07T01:48:58.714Z,100587.46
2022-10-07T01:51:30.991Z,100583.17
2022-10-07T01:54:24.614Z,100581.03
2022-10-07T01:57:18.504Z,100580.54
2022-10-07T01:59:59.097Z,100576.31
2022-10-07T02:02:47.402Z,100574.90
2022-10-07T02:05:37.874Z,100577.55
2022-10-07T02:08:15.338Z,100579.63
2022-10-07T02:10:52.978Z,100575.77
2022-10-07T02:13:38.741Z,100573.86
2022-10-07T02:16:17.553Z,100571.92
2022-10-07T02:18:51.625Z,100565.05
2022-10-07T02:21:29.649Z,100564.70
2022-10-07T02:23:59.625Z,100564.41
2022-10-07T02:26:31.869Z,100562.80
2022-10-07T02:29:03.941Z,100560.95
2022-10-07T02:31:34.999Z,100559.48
2022-10-07T02:34:07.714Z,100558.56
2022-10-07T02:37:03.617Z,100559.82
2022-10-07T02:39:33.826Z,100559.19
2022-10-07T02:42:16.815Z,100555.59
2022-10-07T02:45:02.414Z,100559.98
2022-10-07T02:47:49.880Z,100557.86
2022-10-07T02:50:23.883Z,100555.29
2022-10-07T02:52:56.173Z,100550.73
2022-10-07T02:55:27.797Z,100553.02
2022-10-07T02:58:00.928Z,100551.05
2022-10-07T03:00:33.659Z,100550.49
2022-10-07T03:03:05.319Z,100556.66
2022-10-07T03:05:54.866Z,100556.89
2022-10-07T03:08:24.707Z,100552.85
2022-10-07T03:10:53.040Z,100544.44
2022-10-07T03:13:21.363Z,100547.05
2022-10-07T03:15:52.978Z,100546.45
2022-10-07T03:18:28.408Z,100547.27
2022-10-07T03:21:29.219Z,100547.02
2022-10-07T03:24:05.011Z,100543.98
2022-10-07T03:26:38.145Z,100539.08
2022-10-07T03:29:08.554Z,100542.42
2022-10-07T03:31:37.596Z,100541.70
2022-10-07T03:34:05.874Z,100541.02
2022-10-07T03:36:34.199Z,100540.84
2022-10-07T03:39:04.046Z,100539.58
2022-10-07T03:41:33.595Z,100536.02
2022-10-07T03:44:03.253Z,100533.20
2022-10-07T03:46:31.682Z,100533.35
2022-10-07T03:49:00.207Z,100533.73
2022-10-07T03:51:29.287Z,100531.79
2022-10-07T03:53:59.005Z,100528.27
2022-10-07T03:56:30.582Z,100529.87
2022-10-07T03:58:59.847Z,100535.30
2022-10-07T04:01:31.724Z,100533.55
2022-10-07T04:04:00.987Z,100530.00
2022-10-07T04:06:32.212Z,100532.42
2022-10-07T04:09:03.719Z,100533.58
2022-10-07T04:11:31.899Z,100532.05
2022-10-07T04:14:00.946Z,100530.83
2022-10-07T04:16:30.349Z,100527.77
2022-10-07T04:19:00.664Z,100526.48
2022-10-07T04:21:29.781Z,100524.45
2022-10-07T04:23:58.159Z,100520.33
2022-10-07T04:26:26.545Z,100521.88
2022-10-07T04:28:54.918Z,100521.42
2022-10-07T04:31:24.409Z,100517.05
2022-10-07T04:33:58.066Z,100513.19
2022-10-07T04:36:30.070Z,100513.48
2022-10-07T04:39:04.094Z,100511.89
2022-10-07T04:41:35.973Z,100512.90
2022-10-07T04:44:05.129Z,100509.24
2022-10-07T04:46:37.099Z,100508.09
2022-10-07T04:49:10.812Z,100505.33
2022-10-07T04:51:39.243Z,100509.61
2022-10-07T04:54:08.578Z,100509.96
2022-10-07T04:56:43.311Z,100508.39
2022-10-07T04:59:13.297Z,100511.96
2022-10-07T05:01:42.240Z,100510.47
2022-10-07T05:04:11.932Z,100507.72
2022-10-07T05:06:40.182Z,100508.28
2022-10-07T05:09:08.834Z,100508.69
2022-10-07T05:11:39.097Z,100508.19
2022-10-07T05:14:11.836Z,100509.59
2022-10-07T05:16:42.779Z,100507.64
2022-10-07T05:19:11.373Z,100503.91
2022-10-07T05:21:40.256Z,100502.81
2022-10-07T05:24:08.742Z,100503.23
2022-10-07T05:26:38.980Z,100499.47
2022-10-07T05:29:09.457Z,100503.51
2022-10-07T05:31:42.624Z,100503.98
2022-10-07T05:34:11.861Z,100502.33
2022-10-07T05:36:40.463Z,100500.12
2022-10-07T05:39:11.944Z,100500.60
2022-10-07T05:41:48.856Z,100500.21
2022-10-07T05:44:19.458Z,100501.23
2022-10-07T05:46:49.498Z,100506.34
2022-10-07T05:49:18.140Z,100509.14
2022-10-07T05:51:46.506Z,100508.52
2022-10-07T05:54:15.346Z,100505.95
2022-10-07T05:56:44.367Z,100501.55
2022-10-07T05:59:12.748Z,100505.91
2022-10-07T06:01:43.173Z,100504.79
2022-10-07T06:04:15.895Z,100509.08
2022-10-07T06:06:47.171Z,100506.84
2022-10-07T06:09:34.798Z,100505.86
2022-10-07T06:12:25.703Z,100506.86
2022-10-07T06:14:54.439Z,100503.70
2022-10-07T06:17:22.736Z,100505.98
2022-10-07T06:19:52.033Z,100509.90
2022-10-07T06:22:21.979Z,100505.34
2022-10-07T06:24:52.338Z,100504.39
2022-10-07T06:27:20.811Z,100503.61
2022-10-07T06:29:50.275Z,100504.83
2022-10-07T06:32:52.342Z,100503.29
2022-10-07T06:35:21.207Z,100507.46
2022-10-07T06:37:49.934Z,100506.05
2022-10-07T06:40:18.113Z,100504.27
2022-10-07T06:42:46.360Z,100501.63
2022-10-07T06:45:43.890Z,100505.55
2022-10-07T06:48:13.146Z,100501.11
2022-10-07T06:50:50.354Z,100498.04
2022-10-07T06:53:19.033Z,100495.14
2022-10-07T06:55:48.177Z,100487.51
2022-10-07T06:58:16.344Z,100481.83
2022-10-07T07:00:50.479Z,100484.62
2022-10-07T07:03:19.215Z,100483.41
2022-10-07T07:05:49.745Z,100478.15
2022-10-07T07:08:22.463Z,100477.63
2022-10-07T07:10:51.013Z,100478.34
2022-10-07T07:13:19.419Z,100476.63
2022-10-07T07:15:56.258Z,100473.70
2022-10-07T07:18:25.739Z,100465.50
2022-10-07T07:20:54.230Z,100466.75
2022-10-07T07:23:23.890Z,100462.13
2022-10-07T07:25:52.131Z,100459.25
2022-10-07T07:28:20.429Z,100453.17
2022-10-07T07:30:50.780Z,100454.55
2022-10-07T07:33:19.183Z,100449.45
2022-10-07T07:35:47.465Z,100450.21
2022-10-07T07:38:15.698Z,100450.50
2022-10-07T07:40:44.838Z,100444.45
2022-10-07T07:43:14.528Z,100437.69
2022-10-07T07:45:43.448Z,100436.66
2022-10-07T07:48:13.331Z,100433.17
2022-10-07T07:50:41.655Z,100435.77
2022-10-07T07:53:10.364Z,100431.46
2022-10-07T07:55:38.656Z,100430.80
2022-10-07T07:58:11.759Z,100429.16
2022-10-07T08:00:41.298Z,100423.55
2022-10-07T08:03:09.543Z,100424.36
2022-10-07T08:05:37.945Z,100424.39
2022-10-07T08:08:06.246Z,100414.02
2022-10-07T08:10:35.011Z,100410.74
2022-10-07T08:13:03.177Z,100417.27
2022-10-07T08:15:31.510Z,100411.67
2022-10-07T08:18:00.518Z,100408.95
2022-10-07T08:20:29.285Z,100404.55
2022-10-07T08:23:00.138Z,100404.70
2022-10-07T08:25:28.385Z,100401.44
2022-10-07T08:27:58.170Z,100404.64
2022-10-07T08:30:26.640Z,100397.92
2022-10-07T08:32:59.050Z,100400.89
2022-10-07T08:35:29.520Z,100396.14
2022-10-07T08:37:57.720Z,100392.12
2022-10-07T08:40:26.065Z,100391.58
2022-10-07T08:42:54.780Z,100387.61
2022-10-07T08:45:31.932Z,100380.98
2022-10-07T08:48:07.878Z,100375.51
2022-10-07T08:51:03.559Z,100369.77
2022-10-07T08:53:37.287Z,100370.11
2022-10-07T08:56:13.477Z,100366.99
2022-10-07T08:59:17.270Z,100367.70
2022-10-07T09:02:00.711Z,100365.59
2022-10-07T09:04:38.005Z,100363.64
2022-10-07T09:07:13.897Z,100355.85
2022-10-07T09:09:55.133Z,100352.77
2022-10-07T09:12:44.609Z,100354.89
2022-10-07T09:15:45.525Z,100350.41
2022-10-07T09:18:25.288Z,100346.95
2022-10-07T09:20:56.143Z,100343.54
2022-10-07T09:23:29.309Z,100341.48
2022-10-07T09:25:58.094Z,100338.61
2022-10-07T09:28:30.480Z,100336.33
2022-10-07T09:31:00.878Z,100333.08
2022-10-07T09:33:32.689Z,100332.15
2022-10-07T09:36:10.978Z,100328.60
2022-10-07T09:38:44.770Z,100324.49
2022-10-07T09:41:17.839Z,100319.36
2022-10-07T09:44:00.289Z,100315.26
2022-10-07T09:46:47.059Z,100313.18
2022-10-07T09:49:27.627Z,100310.48
2022-10-07T09:52:14.567Z,100307.04
2022-10-07T09:54:46.192Z,100305.20
2022-10-07T09:57:33.989Z,100297.68
2022-10-07T10:00:21.267Z,100295.45
2022-10-07T10:03:15.005Z,100291.43
2022-10-07T10:05:59.105Z,100289.98
2022-10-07T10:08:31.904Z,100288.41
2022-10-07T10:11:03.051Z,100282.23
2022-10-07T10:13:38.937Z,100279.41
2022-10-07T10:16:41.229Z,100273.42
2022-10-07T10:19:27.853Z,100269.42
2022-10-07T10:21:58.270Z,100261.38
2022-10-07T10:24:50.340Z,100261.98
2022-10-07T10:27:18.799Z,100255.30
2022-10-07T10:29:50.062Z,100250.92
2022-10-07T10:32:42.447Z,100246.85
2022-10-07T10:35:26.340Z,100241.19
2022-10-07T10:38:32.554Z,100237.00
2022-10-07T10:41:11.403Z,100232.70
2022-10-07T10:43:42.542Z,100228.67
2022-10-07T10:46:36.126Z,100225.44
2022-10-07T10:49:43.135Z,100226.07
2022-10-07T10:52:20.493Z,100220.08
2022-10-07T10:54:51.911Z,100213.96
2022-10-07T10:58:00.684Z,100209.02
2022-10-07T11:00:56.366Z,100203.63
2022-10-07T11:04:16.754Z,100198.67
2022-10-07T11:06:51.243Z,100195.13
2022-10-07T11:09:44.597Z,100190.12
2022-10-07T11:12:29.827Z,100185.52
2022-10-07T11:15:06.094Z,100186.60
2022-10-07T11:17:38.160Z,100180.38
2022-10-07T11:20:25.462Z,100174.31
2022-10-07T11:23:18.648Z,100171.09
2022-10-07T11:26:17.110Z,100163.05
2022-10-07T11:28:46.880Z,100155.08
2022-10-07T11:31:37.045Z,100148.77
2022-10-07T11:34:19.190Z,100142.63
2022-10-07T11:37:16.463Z,100141.84
2022-10-07T11:39:44.764Z,100134.23
2022-10-07T11:42:27.438Z,100129.59
2022-10-07T11:45:04.190Z,100125.54
2022-10-07T11:47:42.334Z,100121.60
2022-10-07T11:50:18.235Z,100119.38
2022-10-07T11:52:51.793Z,100111.73
2022-10-07T11:55:22.474Z,100112.11
2022-10-07T11:58:00.475Z,100107.17
2022-10-07T12:00:30.496Z,100108.45
2022-10-07T12:03:30.935Z,100106.73
2022-10-07T12:06:10.509Z,100103.53
2022-10-07T12:08:42.290Z,100101.41
2022-10-07T12:11:13.347Z,100103.56
2022-10-07T12:13:51.883Z,100098.95
2022-10-07T12:16:30.423Z,100098.89
2022-10-07T12:19:07.968Z,100093.81
2022-10-07T12:22:04.988Z,100088.13
2022-10-07T12:24:36.601Z,100080.77
2022-10-07T12:27:21.715Z,100076.27
2022-10-07T12:29:59.778Z,100073.80
2022-10-07T12:32:46.883Z,100066.94
2022-10-07T12:35:34.979Z,100066.69
2022-10-07T12:38:17.329Z,100061.97
2022-10-07T12:41:08.562Z,100059.29
2022-10-07T12:43:36.658Z,100057.26
2022-10-07T12:46:15.448Z,100050.79
2022-10-07T12:49:14.274Z,100048.43
2022-10-07T12:51:45.231Z,100044.88
2022-10-07T12:54:20.492Z,100041.77
2022-10-07T12:56:49.558Z,100036.13
2022-10-07T12:59:48.046Z,100035.91
2022-10-07T13:02:34.597Z,100032.27
2022-10-07T13:05:37.305Z,100025.39
2022-10-07T13:08:24.539Z,100020.59
2022-10-07T13:10:56.398Z,100019.67
2022-10-07T13:13:37.085Z,100015.53
2022-10-07T13:16:34.378Z,100013.22
2022-10-07T13:19:27.279Z,100012.89
2022-10-07T13:22:15.018Z,100007.50
2022-10-07T13:24:50.045Z,100004.11
2022-10-07T13:27:21.295Z,99999.17
2022-10-07T13:29:49.565Z,99998.05
2022-10-07T13:32:30.454Z,99990.77
2022-10-07T13:35:01.498Z,99988.85
2022-10-07T13:37:35.907Z,99985.25
2022-10-07T13:40:22.219Z,99977.84
2022-10-07T13:42:59.899Z,99973.91
2022-10-07T13:45:29.519Z,99971.86
2022-10-07T13:47:57.969Z,99967.27
2022-10-07T13:50:29.624Z,99965.45
2022-10-07T13:52:59.147Z,99963.16
2022-10-07T13:55:31.920Z,99962.58
2022-10-07T13:58:04.611Z,99960.35
2022-10-07T14:00:36.240Z,99956.05
2022-10-07T14:03:16.894Z,99954.26
2022-10-07T14:05:53.824Z,99946.41
2022-10-07T14:08:24.903Z,99943.12
2022-10-07T14:11:02.326Z,99935.95
2022-10-07T14:13:32.258Z,99932.42
2022-10-07T14:16:00.711Z,99926.49
2022-10-07T14:18:32.090Z,99922.11
2022-10-07T14:21:17.762Z,99919.77
2022-10-07T14:23:49.475Z,99913.45
2022-10-07T14:26:19.214Z,99911.07
2022-10-07T14:28:47.470Z,99910.44
2022-10-07T14:31:34.152Z,99907.23
2022-10-07T14:34:34.878Z,99902.55
2022-10-07T14:37:09.966Z,99898.66
2022-10-07T14:39:49.925Z,99893.88
2022-10-07T14:42:28.126Z,99892.98
2022-10-07T14:44:58.165Z,99894.11
2022-10-07T14:47:28.778Z,99890.67
2022-10-07T14:49:59.601Z,99886.27
2022-10-07T14:52:34.946Z,99881.30
2022-10-07T14:55:05.080Z,99881.55
2022-10-07T14:57:34.574Z,99874.77
2022-10-07T15:00:07.158Z,99870.59
2022-10-07T15:02:35.466Z,99872.85
2022-10-07T15:05:05.519Z,99868.93
2022-10-07T15:07:33.731Z,99869.89
2022-10-07T15:10:02.023Z,99868.36
2022-10-07T15:12:30.785Z,99866.17
2022-10-07T15:14:58.953Z,99866.64
2022-10-07T15:17:27.159Z,99862.66
2022-10-07T15:19:55.651Z,99859.73
2022-10-07T15:22:23.875Z,99863.19
2022-10-07T15:24:52.032Z,99862.91
2022-10-07T15:27:20.157Z,99856.48
2022-10-07T15:29:50.649Z,99856.02
2022-10-07T15:32:18.830Z,99853.70
2022-10-07T15:34:47.152Z,99853.59
2022-10-07T15:37:16.012Z,99854.30
2022-10-07T15:39:44.372Z,99851.82
2022-10-07T15:42:15.633Z,99851.76
2022-10-07T15:44:44.920Z,99852.23
2022-10-07T15:47:13.521Z,99853.41
2022-10-07T15:49:41.695Z,99847.79
2022-10-07T15:52:12.314Z,99847.54
2022-10-07T15:54:40.672Z,99845.02
2022-10-07T15:57:09.390Z,99849.05
2022-10-07T15:59:37.866Z,99851.43
2022-10-07T16:02:07.747Z,99846.89
2022-10-07T16:04:40.247Z,99846.62
2022-10-07T16:07:11.434Z,99846.44
2022-10-07T16:09:40.447Z,99841.58
2022-10-07T16:12:11.634Z,99845.56
2022-10-07T16:14:39.894Z,99842.96
2022-10-07T16:17:08.583Z,99839.50
2022-10-07T16:19:36.774Z,99836.32
2022-10-07T16:22:05.013Z,99835.09
2022-10-07T16:24:35.499Z,99833.58
2022-10-07T16:27:04.261Z,99835.37
2022-10-07T16:29:51.110Z,99827.19
2022-10-07T16:32:19.279Z,99831.32
2022-10-07T16:34:50.256Z,99824.16
2022-10-07T16:37:18.537Z,99823.65
2022-10-07T16:39:47.136Z,99820.93
2022-10-07T16:42:15.626Z,99821.16
2022-10-07T16:44:47.254Z,99821.64
2022-10-07T16:47:24.405Z,99820.30
2022-10-07T16:49:52.678Z,99815.91
2022-10-07T16:52:21.826Z,99814.11
2022-10-07T16:54:50.018Z,99814.45
2022-10-07T16:57:18.836Z,99810.36
2022-10-07T16:59:46.976Z,99808.48
2022-10-07T17:02:15.226Z,99803.91
2022-10-07T17:04:44.019Z,99805.58
2022-10-07T17:07:12.467Z,99802.54
2022-10-07T17:09:40.618Z,99798.05
2022-10-07T17:12:09.357Z,99797.77
2022-10-07T17:14:38.975Z,99797.27
2022-10-07T17:17:08.480Z,99794.90
2022-10-07T17:19:36.823Z,99792.69
2022-10-07T17:22:05.153Z,99790.84
2022-10-07T17:24:34.026Z,99788.61
2022-10-07T17:27:02.233Z,99787.16
2022-10-07T17:29:33.538Z,99784.37
2022-10-07T17:32:01.857Z,99782.36
2022-10-07T17:34:30.142Z,99780.91
2022-10-07T17:36:59.912Z,99778.23
2022-10-07T17:39:28.358Z,99775.25
2022-10-07T17:41:57.588Z,99773.35
2022-10-07T17:44:25.780Z,99774.30
2022-10-07T17:46:55.915Z,99772.61
2022-10-07T17:49:24.753Z,99768.98
2022-10-07T17:51:52.928Z,99766.84
2022-10-07T17:54:21.347Z,99763.42
2022-10-07T17:56:49.890Z,99761.00
2022-10-07T17:59:18.058Z,99758.63
2022-10-07T18:01:46.450Z,99757.23
2022-10-07T18:04:22.490Z,99754.53
2022-10-07T18:06:53.166Z,99752.52
2022-10-07T18:09:22.853Z,99751.17
2022-10-07T18:12:09.792Z,99745.89
2022-10-07T18:14:56.682Z,99746.50
2022-10-07T18:17:25.080Z,99741.17
2022-10-07T18:19:53.465Z,99736.39
2022-10-07T18:22:22.113Z,99741.71
2022-10-07T18:24:50.889Z,99742.43
2022-10-07T18:27:22.149Z,99737.04
2022-10-07T18:29:50.380Z,99737.71
2022-10-07T18:32:18.584Z,99737.15
2022-10-07T18:34:47.684Z,99730.31
2022-10-07T18:37:17.091Z,99729.77
2022-10-07T18:39:45.297Z,99728.34
2022-10-07T18:42:13.567Z,99724.63
2022-10-07T18:44:41.934Z,99725.05
2022-10-07T18:47:10.286Z,99720.11
2022-10-07T18:49:38.594Z,99721.94
2022-10-07T18:52:07.554Z,99721.54
2022-10-07T18:54:35.803Z,99719.67
2022-10-07T18:57:04.141Z,99717.10
2022-10-07T18:59:32.370Z,99715.44
2022-10-07T19:02:00.788Z,99711.23
2022-10-07T19:04:31.226Z,99706.12
2022-10-07T19:07:00.734Z,99708.93
2022-10-07T19:09:29.303Z,99707.64
2022-10-07T19:11:59.282Z,99705.00
2022-10-07T19:14:31.317Z,99703.91
2022-10-07T19:16:59.779Z,99706.11
2022-10-07T19:19:30.286Z,99707.88
2022-10-07T19:21:58.665Z,99704.61
2022-10-07T19:24:46.137Z,99703.84
2022-10-07T19:27:14.878Z,99701.93
2022-10-07T19:29:43.204Z,99702.44
2022-10-07T19:32:11.460Z,99699.67
2022-10-07T19:34:39.633Z,99698.42
2022-10-07T19:37:07.811Z,99695.94
2022-10-07T19:39:36.158Z,99696.71
2022-10-07T19:42:04.573Z,99696.44
2022-10-07T19:44:33.721Z,99694.50
2022-10-07T19:47:02.601Z,99694.14
2022-10-07T19:49:33.765Z,99691.48
2022-10-07T19:52:02.055Z,99689.60
2022-10-07T19:54:36.028Z,99690.18
2022-10-07T19:57:04.421Z,99692.03
2022-10-07T19:59:32.645Z,99690.13
2022-10-07T20:02:01.368Z,99687.70
2022-10-07T20:04:30.254Z,99689.88
2022-10-07T20:06:59.255Z,99688.10
2022-10-07T20:09:27.527Z,99688.10
2022-10-07T20:12:00.526Z,99688.77
2022-10-07T20:14:28.732Z,99685.77
2022-10-07T20:16:57.226Z,99681.48
2022-10-07T20:19:25.865Z,99682.05
2022-10-07T20:21:54.711Z,99681.90
2022-10-07T20:24:23.193Z,99684.95
2022-10-07T20:26:51.314Z,99681.23
2022-10-07T20:29:25.391Z,99677.34
2022-10-07T20:31:54.107Z,99676.27
2022-10-07T20:34:22.858Z,99677.31
2022-10-07T20:36:50.945Z,99674.20
2022-10-07T20:39:39.422Z,99671.81
2022-10-07T20:42:22.238Z,99671.44
2022-10-07T20:44:52.039Z,99670.13
2022-10-07T20:47:23.436Z,99670.97
2022-10-07T20:49:52.779Z,99668.54
2022-10-07T20:52:23.814Z,99665.89
2022-10-07T20:54:52.982Z,99665.60
2022-10-07T20:57:24.458Z,99662.16
2022-10-07T20:59:53.261Z,99662.40
2022-10-07T21:02:23.800Z,99659.77
2022-10-07T21:04:52.026Z,99659.67
2022-10-07T21:07:21.017Z,99661.88
2022-10-07T21:09:49.217Z,99660.39
2022-10-07T21:12:18.567Z,99658.02
2022-10-07T21:14:48.694Z,99656.11
2022-10-07T21:17:17.287Z,99654.73
2022-10-07T21:19:45.998Z,99653.39
2022-10-07T21:22:14.297Z,99655.27
2022-10-07T21:24:42.927Z,99653.77
2022-10-07T21:27:11.687Z,99652.89
2022-10-07T21:29:41.224Z,99655.72
2022-10-07T21:32:11.497Z,99657.77
2022-10-07T21:34:40.169Z,99657.39
2022-10-07T21:37:08.532Z,99655.81
2022-10-07T21:39:39.539Z,99654.52
2022-10-07T21:42:07.836Z,99653.10
2022-10-07T21:44:36.291Z,99654.11
2022-10-07T21:47:05.300Z,99654.65
2022-10-07T21:49:33.570Z,99647.74
2022-10-07T21:52:03.033Z,99650.58
2022-10-07T21:54:31.232Z,99648.65
2022-10-07T21:56:59.470Z,99651.35
2022-10-07T21:59:27.638Z,99647.73
2022-10-07T22:01:56.258Z,99650.80
2022-10-07T22:04:25.124Z,99655.75
2022-10-07T22:07:12.058Z,99653.39
2022-10-07T22:09:40.361Z,99651.79
2022-10-07T22:12:09.078Z,99648.67
2022-10-07T22:14:38.093Z,99645.77
2022-10-07T22:17:08.411Z,99644.83
2022-10-07T22:19:36.590Z,99642.83
2022-10-07T22:22:04.846Z,99638.67
2022-10-07T22:24:34.474Z,99634.00
2022-10-07T22:27:03.754Z,99634.03
2022-10-07T22:29:32.096Z,99632.98
2022-10-07T22:32:00.266Z,99629.42
2022-10-07T22:34:47.315Z,99627.23
2022-10-07T22:37:15.485Z,99625.86
2022-10-07T22:39:43.732Z,99620.73
2022-10-07T22:42:11.950Z,99618.10
2022-10-07T22:44:40.139Z,99613.52
2022-10-07T22:47:08.284Z,99612.55
2022-10-07T22:49:36.445Z,99613.30
2022-10-07T22:52:04.663Z,99611.63
2022-10-07T22:54:32.941Z,99610.02
2022-10-07T22:57:01.276Z,99607.39
2022-10-07T22:59:29.454Z,99605.53
2022-10-07T23:01:57.555Z,99600.65
2022-10-07T23:04:26.566Z,99600.45
2022-10-07T23:06:54.874Z,99598.34
2022-10-07T23:09:23.026Z,99598.46
2022-10-07T23:11:51.378Z,99599.04
2022-10-07T23:14:19.541Z,99597.21
2022-10-07T23:16:47.768Z,99598.01
2022-10-07T23:19:16.114Z,99595.06
2022-10-07T23:21:44.996Z,99594.52
2022-10-07T23:24:14.053Z,99594.92
2022-10-07T23:26:43.478Z,99597.21
2022-10-07T23:29:12.562Z,99595.44
2022-10-07T23:31:40.744Z,99592.19
2022-10-07T23:34:10.720Z,99588.11
2022-10-07T23:36:39.445Z,99592.14
2022-10-07T23:39:07.559Z,99590.11
2022-10-07T23:41:36.212Z,99587.36
2022-10-07T23:44:04.740Z,99584.94
2022-10-07T23:46:36.055Z,99583.98
2022-10-07T23:49:04.750Z,99579.77
2022-10-07T23:51:34.249Z,99584.08
2022-10-07T23:54:04.585Z,99578.58
2022-10-07T23:56:33.341Z,99577.84
2022-10-07T23:59:02.991Z,99578.67
